createdAt,value
2022-10-07T00:00:48.755Z,101134.84
2022-10-07T00:03:16.381Z,101130.00
2022-10-07T00:05:43.836Z,101130.31
2022-10-07T00:08:11.284Z,101131.97
2022-10-07T00:10:40.557Z,101132.34
2022-10-07T00:13:09.173Z,101131.16
2022-10-07T00:15:36.482Z,101134.31
2022-10-07T00:18:04.204Z,101121.94
2022-10-07T00:20:31.559Z,101122.63
2022-10-07T00:22:59.441Z,101125.66
2022-10-07T00:25:27.060Z,101122.28
2022-10-07T00:27:54.402Z,101122.44
2022-10-07T00:30:22.230Z,101127.31
2022-10-07T00:32:49.833Z,101119.41
2022-10-07T00:35:17.146Z,101119.59
2022-10-07T00:37:44.665Z,101118.44
2022-10-07T00:40:12.906Z,101113.75
2022-10-07T00:42:40.570Z,101120.59
2022-10-07T00:45:15.067Z,101109.91
2022-10-07T00:47:47.511Z,101109.91
2022-10-07T00:50:26.123Z,101109.91
2022-10-07T00:52:55.801Z,101113.91
2022-10-07T00:55:24.857Z,101116.16
2022-10-07T00:57:53.545Z,101114.13
2022-10-07T01:00:24.124Z,101116.75
2022-10-07T01:02:52.019Z,101104.22
2022-10-07T01:05:19.605Z,101106.84
2022-10-07T01:07:47.618Z,101105.19
2022-10-07T01:10:18.693Z,101108.66
2022-10-07T01:13:24.576Z,101102.75
2022-10-07T01:16:02.450Z,101108.37
2022-10-07T01:18:37.710Z,101101.94
2022-10-07T01:21:18.500Z,101100.34
2022-10-07T01:24:01.085Z,101097.16
2022-10-07T01:26:51.856Z,101102.78
2022-10-07T01:29:25.770Z,101100.19
2022-10-07T01:32:06.753Z,101102.47
2022-10-07T01:34:34.276Z,101103.19
2022-10-07T01:37:02.195Z,101102.38
2022-10-07T01:39:32.264Z,101098.13
2022-10-07T01:41:59.586Z,101103.03
2022-10-07T01:44:30.699Z,101099.00
2022-10-07T01:46:58.253Z,101105.78
2022-10-07T01:49:25.756Z,101102.84
2022-10-07T01:52:11.946Z,101106.47
2022-10-07T01:54:53.412Z,101100.53
2022-10-07T01:57:28.731Z,101097.84
2022-10-07T02:00:07.363Z,101102.44
2022-10-07T02:02:43.781Z,101098.97
2022-10-07T02:05:49.856Z,101099.44
2022-10-07T02:08:30.188Z,101089.66
2022-10-07T02:11:16.116Z,101089.41
2022-10-07T02:14:00.244Z,101100.00
2022-10-07T02:16:30.167Z,101094.28
2022-10-07T02:18:58.497Z,101102.72
2022-10-07T02:21:27.735Z,101101.91
2022-10-07T02:23:55.286Z,101103.78
2022-10-07T02:26:22.779Z,101100.97
2022-10-07T02:28:51.236Z,101100.94
2022-10-07T02:31:21.040Z,101094.59
2022-10-07T02:33:51.067Z,101092.97
2022-10-07T02:36:25.275Z,101089.94
2022-10-07T02:38:53.065Z,101088.34
2022-10-07T02:42:05.044Z,101091.88
2022-10-07T02:44:49.970Z,101092.69
2022-10-07T02:47:43.487Z,101087.72
2022-10-07T02:50:12.872Z,101089.38
2022-10-07T02:52:41.152Z,101090.59
2022-10-07T02:55:16.045Z,101092.97
2022-10-07T02:57:47.101Z,101084.25
2022-10-07T03:00:15.235Z,101092.53
2022-10-07T03:03:01.460Z,101081.72
2022-10-07T03:05:30.792Z,101085.78
2022-10-07T03:08:01.009Z,101080.19
2022-10-07T03:10:31.338Z,101082.22
2022-10-07T03:12:58.749Z,101078.53
2022-10-07T03:15:26.327Z,101078.22
2022-10-07T03:17:54.285Z,101080.28
2022-10-07T03:20:22.521Z,101081.56
2022-10-07T03:22:50.947Z,101081.37
2022-10-07T03:25:19.461Z,101080.03
2022-10-07T03:27:48.638Z,101077.72
2022-10-07T03:30:16.317Z,101082.38
2022-10-07T03:32:44.167Z,101077.44
2022-10-07T03:35:11.545Z,101076.34
2022-10-07T03:37:39.225Z,101083.66
2022-10-07T03:40:08.491Z,101087.44
2022-10-07T03:42:35.845Z,101085.16
2022-10-07T03:45:06.421Z,101084.94
2022-10-07T03:47:34.153Z,101081.88
2022-10-07T03:50:01.775Z,101082.41
2022-10-07T03:52:31.477Z,101084.78
2022-10-07T03:54:59.227Z,101074.47
2022-10-07T03:57:46.078Z,101074.91
2022-10-07T04:00:14.604Z,101076.22
2022-10-07T04:02:42.203Z,101070.53
2022-10-07T04:05:10.268Z,101071.53
2022-10-07T04:07:38.109Z,101074.94
2022-10-07T04:10:05.882Z,101075.94
2022-10-07T04:12:33.584Z,101063.81
2022-10-07T04:15:02.013Z,101065.16
2022-10-07T04:17:31.229Z,101067.47
2022-10-07T04:19:58.930Z,101070.50
2022-10-07T04:22:27.060Z,101068.66
2022-10-07T04:25:13.341Z,101064.03
2022-10-07T04:27:58.239Z,101054.00
2022-10-07T04:30:27.401Z,101061.47
2022-10-07T04:32:55.174Z,101054.47
2022-10-07T04:35:23.335Z,101057.97
2022-10-07T04:37:51.565Z,101058.38
2022-10-07T04:40:20.850Z,101054.13
2022-10-07T04:43:07.153Z,101052.81
2022-10-07T04:45:35.951Z,101055.47
2022-10-07T04:48:05.727Z,101067.09
2022-10-07T04:50:33.956Z,101055.97
2022-10-07T04:53:02.156Z,101068.00
2022-10-07T04:55:30.276Z,101070.69
2022-10-07T04:57:57.909Z,101070.13
2022-10-07T05:00:25.713Z,101072.44
2022-10-07T05:02:53.147Z,101074.91
2022-10-07T05:05:21.040Z,101076.38
2022-10-07T05:07:52.258Z,101069.47
2022-10-07T05:10:20.493Z,101071.19
2022-10-07T05:12:50.439Z,101074.09
2022-10-07T05:15:20.248Z,101075.28
2022-10-07T05:17:48.984Z,101077.03
2022-10-07T05:20:16.394Z,101075.41
2022-10-07T05:22:44.052Z,101083.38
2022-10-07T05:25:11.478Z,101093.97
2022-10-07T05:27:40.785Z,101091.50
2022-10-07T05:30:09.813Z,101091.78
2022-10-07T05:32:37.356Z,101091.44
2022-10-07T05:35:05.086Z,101089.22
2022-10-07T05:37:33.640Z,101080.84
2022-10-07T05:40:01.217Z,101085.06
2022-10-07T05:42:28.554Z,101090.47
2022-10-07T05:44:56.350Z,101082.41
2022-10-07T05:47:24.110Z,101083.91
2022-10-07T05:49:52.121Z,101092.50
2022-10-07T05:52:21.112Z,101093.81
2022-10-07T05:54:49.730Z,101081.81
2022-10-07T05:57:17.550Z,101087.72
2022-10-07T05:59:45.247Z,101090.53
2022-10-07T06:02:14.093Z,101093.41
2022-10-07T06:04:45.977Z,101096.75
2022-10-07T06:07:16.960Z,101095.47
2022-10-07T06:10:06.929Z,101100.81
2022-10-07T06:12:54.016Z,101105.81
2022-10-07T06:15:21.670Z,101105.88
2022-10-07T06:17:49.652Z,101106.53
2022-10-07T06:20:17.355Z,101103.38
2022-10-07T06:22:45.409Z,101101.56
2022-10-07T06:25:13.353Z,101105.91
2022-10-07T06:27:40.777Z,101097.69
2022-10-07T06:30:08.765Z,101101.87
2022-10-07T06:32:36.279Z,101099.16
2022-10-07T06:35:04.163Z,101095.66
2022-10-07T06:37:32.326Z,101098.13
2022-10-07T06:40:00.231Z,101095.97
2022-10-07T06:42:29.322Z,101094.44
2022-10-07T06:44:58.056Z,101087.06
2022-10-07T06:47:25.740Z,101091.09
2022-10-07T06:49:53.162Z,101081.34
2022-10-07T06:52:20.805Z,101072.09
2022-10-07T06:54:48.307Z,101072.38
2022-10-07T06:57:43.582Z,101076.06
2022-10-07T07:00:07.909Z,101078.19
2022-10-07T07:02:36.395Z,101073.12
2022-10-07T07:05:08.104Z,101067.06
2022-10-07T07:07:35.997Z,101072.53
2022-10-07T07:10:03.556Z,101079.16
2022-10-07T07:12:32.018Z,101077.09
2022-10-07T07:15:00.403Z,101081.78
2022-10-07T07:17:27.865Z,101072.69
2022-10-07T07:19:56.515Z,101071.75
2022-10-07T07:22:24.821Z,101078.53
2022-10-07T07:24:52.399Z,101076.59
2022-10-07T07:27:21.568Z,101072.47
2022-10-07T07:29:50.312Z,101072.50
2022-10-07T07:32:17.872Z,101074.44
2022-10-07T07:34:45.861Z,101073.25
2022-10-07T07:37:15.116Z,101071.88
2022-10-07T07:39:44.500Z,101072.13
2022-10-07T07:42:11.961Z,101069.44
2022-10-07T07:44:40.232Z,101071.13
2022-10-07T07:47:08.825Z,101069.56
2022-10-07T07:49:36.479Z,101064.50
2022-10-07T07:52:05.495Z,101064.66
2022-10-07T07:54:37.542Z,101058.16
2022-10-07T07:57:05.290Z,101059.31
2022-10-07T07:59:33.172Z,101068.47
2022-10-07T08:02:00.667Z,101065.59
2022-10-07T08:04:29.471Z,101064.13
2022-10-07T08:06:57.265Z,101052.06
2022-10-07T08:09:24.796Z,101055.66
2022-10-07T08:11:53.205Z,101047.88
2022-10-07T08:14:20.565Z,101045.75
2022-10-07T08:16:48.641Z,101047.81
2022-10-07T08:19:16.377Z,101038.13
2022-10-07T08:21:44.205Z,101039.63
2022-10-07T08:24:12.815Z,101038.78
2022-10-07T08:26:41.014Z,101033.78
2022-10-07T08:29:08.570Z,101042.66
2022-10-07T08:31:35.960Z,101036.94
2022-10-07T08:34:03.927Z,101043.84
2022-10-07T08:36:32.843Z,101034.50
2022-10-07T08:39:00.587Z,101037.91
2022-10-07T08:41:36.486Z,101028.50
2022-10-07T08:44:31.951Z,101022.19
2022-10-07T08:47:11.459Z,101031.34
2022-10-07T08:49:54.651Z,101025.66
2022-10-07T08:52:37.904Z,101025.00
2022-10-07T08:55:22.165Z,101024.38
2022-10-07T08:57:53.012Z,101023.47
2022-10-07T09:00:21.288Z,101018.94
2022-10-07T09:03:07.475Z,101009.41
2022-10-07T09:05:39.049Z,101017.91
2022-10-07T09:08:28.657Z,101012.72
2022-10-07T09:11:00.321Z,100996.72
2022-10-07T09:13:31.137Z,100998.22
2022-10-07T09:16:11.356Z,100996.16
2022-10-07T09:18:47.945Z,100990.66
2022-10-07T09:21:25.476Z,100988.09
2022-10-07T09:23:55.703Z,100997.84
2022-10-07T09:26:25.035Z,100993.66
2022-10-07T09:28:52.420Z,100986.50
2022-10-07T09:31:19.850Z,100981.69
2022-10-07T09:33:49.447Z,100974.25
2022-10-07T09:36:18.906Z,100973.25
2022-10-07T09:38:50.202Z,100978.38
2022-10-07T09:41:21.441Z,100977.38
2022-10-07T09:43:56.137Z,100975.28
2022-10-07T09:46:32.490Z,100969.03
2022-10-07T09:49:04.405Z,100959.56
2022-10-07T09:51:32.617Z,100956.47
2022-10-07T09:54:03.001Z,100957.97
2022-10-07T09:56:33.123Z,100953.00
2022-10-07T09:59:25.737Z,100949.63
2022-10-07T10:01:55.683Z,100946.91
2022-10-07T10:04:28.345Z,100943.31
2022-10-07T10:06:55.833Z,100935.97
2022-10-07T10:09:24.598Z,100921.19
2022-10-07T10:12:10.560Z,100930.31
2022-10-07T10:14:58.651Z,100924.19
2022-10-07T10:17:35.369Z,100921.75
2022-10-07T10:20:32.502Z,100924.72
2022-10-07T10:23:01.247Z,100920.53
2022-10-07T10:25:56.777Z,100923.00
2022-10-07T10:28:34.169Z,100917.25
2022-10-07T10:31:13.408Z,100910.19
2022-10-07T10:34:10.094Z,100901.66
2022-10-07T10:36:39.388Z,100911.47
2022-10-07T10:39:22.887Z,100907.19
2022-10-07T10:41:52.495Z,100898.72
2022-10-07T10:44:32.962Z,100896.88
2022-10-07T10:47:01.490Z,100895.03
2022-10-07T10:49:35.151Z,100891.37
2022-10-07T10:52:36.845Z,100881.94
2022-10-07T10:55:18.334Z,100876.69
2022-10-07T10:58:04.434Z,100876.53
2022-10-07T11:00:50.220Z,100863.84
2022-10-07T11:03:36.668Z,100863.03
2022-10-07T11:06:07.716Z,100861.59
2022-10-07T11:08:38.442Z,100857.44
2022-10-07T11:11:27.099Z,100847.25
2022-10-07T11:14:17.235Z,100845.81
2022-10-07T11:16:49.467Z,100845.81
2022-10-07T11:19:24.306Z,100836.66
2022-10-07T11:21:52.983Z,100822.25
2022-10-07T11:24:41.482Z,100819.44
2022-10-07T11:27:26.792Z,100822.75
2022-10-07T11:29:55.511Z,100807.06
2022-10-07T11:32:28.295Z,100812.41
2022-10-07T11:35:14.364Z,100805.50
2022-10-07T11:37:47.233Z,100802.56
2022-10-07T11:40:14.567Z,100799.22
2022-10-07T11:42:48.166Z,100796.94
2022-10-07T11:45:27.039Z,100786.06
2022-10-07T11:47:59.984Z,100790.19
2022-10-07T11:50:49.661Z,100777.06
2022-10-07T11:53:32.322Z,100784.78
2022-10-07T11:56:12.404Z,100773.16
2022-10-07T11:58:40.050Z,100763.16
2022-10-07T12:01:25.664Z,100765.91
2022-10-07T12:03:54.078Z,100759.84
2022-10-07T12:06:21.385Z,100757.34
2022-10-07T12:08:48.814Z,100753.75
2022-10-07T12:11:19.426Z,100743.91
2022-10-07T12:13:50.846Z,100750.75
2022-10-07T12:16:31.545Z,100741.41
2022-10-07T12:19:07.802Z,100745.56
2022-10-07T12:21:55.545Z,100731.59
2022-10-07T12:24:22.836Z,100732.00
2022-10-07T12:26:50.607Z,100734.28
2022-10-07T12:29:26.399Z,100723.91
2022-10-07T12:31:54.193Z,100717.91
2022-10-07T12:34:48.339Z,100720.38
2022-10-07T12:37:40.695Z,100710.09
2022-10-07T12:40:16.021Z,100712.69
2022-10-07T12:42:54.610Z,100707.66
2022-10-07T12:45:22.307Z,100714.56
2022-10-07T12:47:50.250Z,100709.97
2022-10-07T12:50:17.648Z,100710.81
2022-10-07T12:52:55.973Z,100708.81
2022-10-07T12:55:39.673Z,100696.88
2022-10-07T12:58:45.618Z,100693.25
2022-10-07T13:01:40.361Z,100685.00
2022-10-07T13:04:10.743Z,100694.50
2022-10-07T13:06:57.498Z,100681.00
2022-10-07T13:09:30.984Z,100678.44
2022-10-07T13:12:27.950Z,100677.31
2022-10-07T13:15:23.298Z,100670.94
2022-10-07T13:18:11.144Z,100662.28
2022-10-07T13:20:42.123Z,100665.91
2022-10-07T13:23:24.570Z,100659.28
2022-10-07T13:26:09.219Z,100652.12
2022-10-07T13:28:50.711Z,100652.12
2022-10-07T13:31:24.666Z,100654.81
2022-10-07T13:33:55.904Z,100646.50
2022-10-07T13:36:28.074Z,100649.19
2022-10-07T13:39:20.586Z,100650.09
2022-10-07T13:41:49.261Z,100638.69
2022-10-07T13:44:19.976Z,100640.75
2022-10-07T13:46:55.806Z,100646.41
2022-10-07T13:49:26.202Z,100628.78
2022-10-07T13:51:56.371Z,100629.72
2022-10-07T13:54:26.225Z,100622.41
2022-10-07T13:56:53.579Z,100623.50
2022-10-07T13:59:21.094Z,100620.50
2022-10-07T14:01:55.604Z,100619.56
2022-10-07T14:04:31.530Z,100614.69
2022-10-07T14:07:08.549Z,100610.91
2022-10-07T14:09:58.112Z,100597.59
2022-10-07T14:12:30.057Z,100595.66
2022-10-07T14:15:27.756Z,100603.69
2022-10-07T14:17:57.143Z,100593.06
2022-10-07T14:20:34.933Z,100590.44
2022-10-07T14:23:03.877Z,100593.59
2022-10-07T14:25:55.392Z,100588.84
2022-10-07T14:28:30.282Z,100581.91
2022-10-07T14:31:25.875Z,100585.22
2022-10-07T14:34:37.746Z,100579.19
2022-10-07T14:37:29.761Z,100579.41
2022-10-07T14:39:59.184Z,100584.88
2022-10-07T14:42:32.160Z,100586.19
2022-10-07T14:44:59.578Z,100584.84
2022-10-07T14:47:28.388Z,100572.25
2022-10-07T14:49:56.738Z,100573.69
2022-10-07T14:52:24.970Z,100574.50
2022-10-07T14:54:52.786Z,100576.13
2022-10-07T14:57:20.155Z,100570.62
2022-10-07T14:59:50.003Z,100570.44
2022-10-07T15:02:17.660Z,100562.56
2022-10-07T15:04:46.427Z,100566.88
2022-10-07T15:07:14.454Z,100558.69
2022-10-07T15:09:42.621Z,100560.66
2022-10-07T15:12:10.888Z,100558.53
2022-10-07T15:14:38.312Z,100561.47
2022-10-07T15:17:06.203Z,100554.75
2022-10-07T15:19:34.680Z,100551.25
2022-10-07T15:22:02.007Z,100557.94
2022-10-07T15:24:31.809Z,100554.59
2022-10-07T15:26:59.742Z,100549.44
2022-10-07T15:29:27.134Z,100549.88
2022-10-07T15:31:54.868Z,100553.13
2022-10-07T15:34:22.813Z,100559.06
2022-10-07T15:36:50.250Z,100554.06
2022-10-07T15:39:17.813Z,100555.06
2022-10-07T15:41:45.229Z,100556.34
2022-10-07T15:44:13.756Z,100550.25
2022-10-07T15:46:42.585Z,100558.16
2022-10-07T15:49:10.208Z,100562.50
2022-10-07T15:51:37.644Z,100560.72
2022-10-07T15:54:05.677Z,100558.03
2022-10-07T15:56:33.428Z,100562.41
2022-10-07T15:59:02.106Z,100562.41
2022-10-07T16:01:32.099Z,100561.78
2022-10-07T16:04:00.861Z,100562.19
2022-10-07T16:06:32.240Z,100564.84
2022-10-07T16:09:00.117Z,100559.81
2022-10-07T16:11:28.364Z,100570.47
2022-10-07T16:13:55.704Z,100563.41
2022-10-07T16:16:24.736Z,100559.91
2022-10-07T16:18:53.792Z,100558.25
2022-10-07T16:21:22.857Z,100562.84
2022-10-07T16:23:51.490Z,100569.09
2022-10-07T16:26:21.216Z,100564.09
2022-10-07T16:29:12.850Z,100561.00
2022-10-07T16:31:41.426Z,100559.13
2022-10-07T16:34:09.995Z,100567.22
2022-10-07T16:36:39.144Z,100560.81
2022-10-07T16:39:09.828Z,100571.19
2022-10-07T16:41:37.534Z,100567.03
2022-10-07T16:44:05.077Z,100565.81
2022-10-07T16:46:32.743Z,100563.31
2022-10-07T16:49:00.387Z,100565.19
2022-10-07T16:51:29.787Z,100567.03
2022-10-07T16:54:01.688Z,100567.03
2022-10-07T16:56:34.959Z,100564.12
2022-10-07T16:59:04.425Z,100563.47
2022-10-07T17:01:31.898Z,100565.31
2022-10-07T17:03:59.955Z,100555.97
2022-10-07T17:06:29.369Z,100566.97
2022-10-07T17:08:57.076Z,100551.84
2022-10-07T17:11:30.548Z,100557.81
2022-10-07T17:14:01.682Z,100556.19
2022-10-07T17:16:31.627Z,100559.91
2022-10-07T17:18:59.357Z,100564.41
2022-10-07T17:21:26.709Z,100568.56
2022-10-07T17:23:58.159Z,100563.56
2022-10-07T17:26:26.816Z,100556.75
2022-10-07T17:29:02.437Z,100568.50
2022-10-07T17:31:30.687Z,100560.72
2022-10-07T17:33:58.262Z,100563.34
2022-10-07T17:36:26.046Z,100559.00
2022-10-07T17:38:53.766Z,100563.56
2022-10-07T17:41:23.259Z,100567.03
2022-10-07T17:43:51.780Z,100565.03
2022-10-07T17:46:20.318Z,100566.63
2022-10-07T17:48:48.719Z,100559.19
2022-10-07T17:51:16.974Z,100561.81
2022-10-07T17:53:44.949Z,100560.56
2022-10-07T17:56:14.357Z,100558.50
2022-10-07T17:58:43.150Z,100558.44
2022-10-07T18:01:15.778Z,100556.78
2022-10-07T18:03:43.746Z,100554.09
2022-10-07T18:06:11.383Z,100557.19
2022-10-07T18:08:41.469Z,100557.19
2022-10-07T18:11:09.314Z,100553.56
2022-10-07T18:13:55.614Z,100553.75
2022-10-07T18:16:23.427Z,100549.03
2022-10-07T18:18:54.988Z,100542.63
2022-10-07T18:21:23.358Z,100545.47
2022-10-07T18:23:51.429Z,100551.06
2022-10-07T18:26:18.966Z,100542.37
2022-10-07T18:28:46.812Z,100541.09
2022-10-07T18:31:16.275Z,100549.16
2022-10-07T18:33:43.692Z,100536.78
2022-10-07T18:36:14.293Z,100543.38
2022-10-07T18:38:42.593Z,100544.34
2022-10-07T18:41:14.850Z,100545.28
2022-10-07T18:43:43.452Z,100547.03
2022-10-07T18:46:17.077Z,100534.81
2022-10-07T18:48:45.300Z,100533.78
2022-10-07T18:51:12.851Z,100536.69
2022-10-07T18:53:41.332Z,100537.03
2022-10-07T18:56:14.058Z,100536.16
2022-10-07T18:58:42.805Z,100537.88
2022-10-07T19:01:12.433Z,100528.69
2022-10-07T19:03:40.093Z,100533.25
2022-10-07T19:06:15.102Z,100530.81
2022-10-07T19:08:42.824Z,100533.00
2022-10-07T19:11:11.623Z,100531.28
2022-10-07T19:13:48.030Z,100534.81
2022-10-07T19:16:19.937Z,100528.37
2022-10-07T19:18:48.243Z,100522.13
2022-10-07T19:21:18.062Z,100529.47
2022-10-07T19:23:48.590Z,100530.53
2022-10-07T19:26:21.159Z,100525.59
2022-10-07T19:28:49.855Z,100532.28
2022-10-07T19:31:31.949Z,100529.78
2022-10-07T19:34:03.160Z,100527.25
2022-10-07T19:36:32.897Z,100526.88
2022-10-07T19:39:00.374Z,100531.28
2022-10-07T19:41:29.281Z,100530.09
2022-10-07T19:43:56.906Z,100532.34
2022-10-07T19:46:26.544Z,100529.66
2022-10-07T19:48:55.397Z,100534.44
2022-10-07T19:51:23.501Z,100531.34
2022-10-07T19:53:51.424Z,100527.38
2022-10-07T19:56:26.449Z,100535.44
2022-10-07T19:58:58.798Z,100526.19
2022-10-07T20:01:32.420Z,100537.06
2022-10-07T20:04:01.741Z,100525.31
2022-10-07T20:06:29.146Z,100535.81
2022-10-07T20:08:56.977Z,100534.88
2022-10-07T20:11:25.068Z,100544.34
2022-10-07T20:13:54.306Z,100536.16
2022-10-07T20:16:25.676Z,100530.56
2022-10-07T20:19:06.634Z,100536.44
2022-10-07T20:21:35.748Z,100539.41
2022-10-07T20:24:04.164Z,100531.56
2022-10-07T20:26:33.312Z,100546.44
2022-10-07T20:29:01.466Z,100539.06
2022-10-07T20:31:33.700Z,100548.38
2022-10-07T20:34:01.803Z,100545.03
2022-10-07T20:36:30.964Z,100536.47
2022-10-07T20:39:31.694Z,100538.13
2022-10-07T20:42:17.803Z,100538.78
2022-10-07T20:44:46.783Z,100534.66
2022-10-07T20:47:14.415Z,100539.13
2022-10-07T20:49:42.292Z,100537.47
2022-10-07T20:52:16.658Z,100539.53
2022-10-07T20:54:44.826Z,100537.88
2022-10-07T20:57:13.490Z,100534.59
2022-10-07T20:59:40.844Z,100533.53
2022-10-07T21:02:10.325Z,100531.50
2022-10-07T21:04:37.674Z,100526.41
2022-10-07T21:07:05.094Z,100527.25
2022-10-07T21:09:36.305Z,100529.16
2022-10-07T21:12:05.183Z,100523.06
2022-10-07T21:14:33.409Z,100523.91
2022-10-07T21:17:01.183Z,100522.41
2022-10-07T21:19:28.605Z,100519.94
2022-10-07T21:21:56.260Z,100527.41
2022-10-07T21:24:23.585Z,100528.87
2022-10-07T21:26:50.981Z,100521.13
2022-10-07T21:29:18.952Z,100521.59
2022-10-07T21:31:46.324Z,100521.25
2022-10-07T21:34:13.663Z,100518.16
2022-10-07T21:36:49.215Z,100526.81
2022-10-07T21:39:17.742Z,100516.69
2022-10-07T21:41:45.281Z,100522.50
2022-10-07T21:44:12.942Z,100523.09
2022-10-07T21:46:45.685Z,100522.78
2022-10-07T21:49:14.341Z,100521.69
2022-10-07T21:51:41.974Z,100522.63
2022-10-07T21:54:13.560Z,100518.34
2022-10-07T21:56:43.489Z,100513.06
2022-10-07T21:59:11.415Z,100508.66
2022-10-07T22:01:38.858Z,100507.00
2022-10-07T22:04:07.285Z,100500.28
2022-10-07T22:07:00.683Z,100504.78
2022-10-07T22:09:28.329Z,100503.06
2022-10-07T22:11:55.811Z,100508.00
2022-10-07T22:14:23.591Z,100495.38
2022-10-07T22:16:51.198Z,100494.16
2022-10-07T22:19:18.534Z,100492.97
2022-10-07T22:21:45.988Z,100499.41
2022-10-07T22:24:14.104Z,100488.91
2022-10-07T22:26:44.405Z,100491.19
2022-10-07T22:29:11.984Z,100490.22
2022-10-07T22:31:39.605Z,100488.19
2022-10-07T22:34:06.961Z,100483.63
2022-10-07T22:36:35.277Z,100474.66
2022-10-07T22:39:02.901Z,100476.16
2022-10-07T22:41:30.246Z,100474.37
2022-10-07T22:43:59.020Z,100478.41
2022-10-07T22:46:27.566Z,100472.47
2022-10-07T22:48:56.524Z,100467.37
2022-10-07T22:51:24.489Z,100469.12
2022-10-07T22:53:56.222Z,100466.69
2022-10-07T22:56:24.662Z,100471.44
2022-10-07T22:58:58.729Z,100467.16
2022-10-07T23:01:29.376Z,100462.41
2022-10-07T23:04:02.958Z,100463.22
2022-10-07T23:06:32.398Z,100459.34
2022-10-07T23:09:00.359Z,100459.97
2022-10-07T23:11:28.314Z,100456.94
2022-10-07T23:13:55.696Z,100455.16
2022-10-07T23:16:24.942Z,100457.25
2022-10-07T23:18:55.499Z,100457.19
2022-10-07T23:21:27.050Z,100457.34
2022-10-07T23:24:06.009Z,100456.09
2022-10-07T23:26:34.951Z,100459.25
2022-10-07T23:29:03.390Z,100460.34
2022-10-07T23:31:31.932Z,100454.31
2022-10-07T23:34:00.397Z,100452.19
2022-10-07T23:36:28.118Z,100452.91
2022-10-07T23:38:55.478Z,100457.16
2022-10-07T23:41:25.017Z,100455.34
2022-10-07T23:43:53.549Z,100444.22
2022-10-07T23:46:21.338Z,100454.41
2022-10-07T23:48:49.442Z,100446.00
2022-10-07T23:51:19.136Z,100445.53
2022-10-07T23:53:46.684Z,100439.75
2022-10-07T23:56:14.281Z,100441.81
2022-10-07T23:58:41.675Z,100436.38
